sensor_id;sensor_type;location;lat;lon;timestamp;P1;durP1;ratioP1;P2;durP2;ratioP2
75997;SDS011;64685;48.762;44.822;2022-12-20T06:18:18;9.90;;;3.13;;
75997;SDS011;64685;48.762;44.822;2022-12-20T06:20:49;5.93;;;2.15;;
75997;SDS011;64685;48.762;44.822;2022-12-20T06:23:17;8.80;;;2.67;;
75997;SDS011;64685;48.762;44.822;2022-12-20T06:25:50;7.90;;;2.35;;
75997;SDS011;64685;48.762;44.822;2022-12-20T06:28:17;7.28;;;2.67;;
75997;SDS011;64685;48.762;44.822;2022-12-20T06:30:51;6.20;;;2.50;;
75997;SDS011;64685;48.762;44.822;2022-12-20T06:33:28;7.45;;;3.13;;
75997;SDS011;64685;48.762;44.822;2022-12-20T06:35:54;7.30;;;2.33;;
75997;SDS011;64685;48.762;44.822;2022-12-20T06:38:21;7.82;;;2.85;;
75997;SDS011;64685;48.762;44.822;2022-12-20T06:40:48;9.15;;;3.63;;
75997;SDS011;64685;48.762;44.822;2022-12-20T06:43:14;7.30;;;3.05;;
75997;SDS011;64685;48.762;44.822;2022-12-20T06:45:40;8.63;;;3.42;;
75997;SDS011;64685;48.762;44.822;2022-12-20T06:48:05;6.38;;;2.55;;
75997;SDS011;64685;48.762;44.822;2022-12-20T06:50:33;9.68;;;3.40;;
75997;SDS011;64685;48.762;44.822;2022-12-20T06:53:00;7.78;;;2.15;;
75997;SDS011;64685;48.762;44.822;2022-12-20T06:55:25;6.57;;;2.28;;
75997;SDS011;64685;48.762;44.822;2022-12-20T06:57:51;9.65;;;3.75;;
75997;SDS011;64685;48.762;44.822;2022-12-20T07:00:18;6.13;;;2.28;;
75997;SDS011;64685;48.762;44.822;2022-12-20T07:02:44;4.95;;;2.92;;
75997;SDS011;64685;48.762;44.822;2022-12-20T07:05:10;9.30;;;3.05;;
75997;SDS011;64685;48.762;44.822;2022-12-20T07:07:36;10.88;;;3.10;;
75997;SDS011;64685;48.762;44.822;2022-12-20T07:10:02;7.82;;;3.25;;
75997;SDS011;64685;48.762;44.822;2022-12-20T07:12:28;10.68;;;3.47;;
75997;SDS011;64685;48.762;44.822;2022-12-20T07:14:54;7.35;;;3.50;;
75997;SDS011;64685;48.762;44.822;2022-12-20T07:17:20;7.82;;;3.45;;
75997;SDS011;64685;48.762;44.822;2022-12-20T07:19:46;4.60;;;1.85;;
75997;SDS011;64685;48.762;44.822;2022-12-20T07:22:11;8.43;;;2.80;;
75997;SDS011;64685;48.762;44.822;2022-12-20T07:24:37;6.32;;;2.17;;
75997;SDS011;64685;48.762;44.822;2022-12-20T07:27:04;10.15;;;2.80;;
75997;SDS011;64685;48.762;44.822;2022-12-20T07:29:29;6.47;;;2.58;;
75997;SDS011;64685;48.762;44.822;2022-12-20T07:31:55;9.35;;;3.33;;
75997;SDS011;64685;48.762;44.822;2022-12-20T07:34:21;10.82;;;3.40;;
75997;SDS011;64685;48.762;44.822;2022-12-20T07:36:47;15.23;;;3.53;;
75997;SDS011;64685;48.762;44.822;2022-12-20T07:39:13;7.47;;;2.63;;
75997;SDS011;64685;48.762;44.822;2022-12-20T07:41:39;8.88;;;3.30;;
75997;SDS011;64685;48.762;44.822;2022-12-20T07:44:10;6.00;;;2.22;;
75997;SDS011;64685;48.762;44.822;2022-12-20T07:46:36;7.38;;;2.95;;
75997;SDS011;64685;48.762;44.822;2022-12-20T07:49:02;9.93;;;3.13;;
75997;SDS011;64685;48.762;44.822;2022-12-20T07:51:33;7.70;;;2.58;;
75997;SDS011;64685;48.762;44.822;2022-12-20T07:54:13;7.32;;;2.60;;
75997;SDS011;64685;48.762;44.822;2022-12-20T07:56:42;4.85;;;1.92;;
75997;SDS011;64685;48.762;44.822;2022-12-20T07:59:10;6.20;;;2.10;;
75997;SDS011;64685;48.762;44.822;2022-12-20T08:04:05;8.10;;;3.25;;
75997;SDS011;64685;48.762;44.822;2022-12-20T08:06:33;8.13;;;2.90;;
75997;SDS011;64685;48.762;44.822;2022-12-20T08:09:02;11.50;;;3.38;;
75997;SDS011;64685;48.762;44.822;2022-12-20T08:11:28;8.25;;;2.97;;
75997;SDS011;64685;48.762;44.822;2022-12-20T08:18:46;7.57;;;2.85;;
75997;SDS011;64685;48.762;44.822;2022-12-20T08:21:12;5.25;;;2.40;;
75997;SDS011;64685;48.762;44.822;2022-12-20T08:23:39;7.25;;;3.22;;
75997;SDS011;64685;48.762;44.822;2022-12-20T08:26:05;6.30;;;2.58;;
75997;SDS011;64685;48.762;44.822;2022-12-20T08:28:31;6.10;;;2.28;;
75997;SDS011;64685;48.762;44.822;2022-12-20T08:31:01;9.20;;;2.80;;
75997;SDS011;64685;48.762;44.822;2022-12-20T08:33:27;7.38;;;2.42;;
75997;SDS011;64685;48.762;44.822;2022-12-20T08:35:56;5.85;;;2.55;;
75997;SDS011;64685;48.762;44.822;2022-12-20T08:38:24;6.88;;;3.03;;
75997;SDS011;64685;48.762;44.822;2022-12-20T08:40:50;7.80;;;2.92;;
75997;SDS011;64685;48.762;44.822;2022-12-20T08:43:15;9.70;;;3.40;;
75997;SDS011;64685;48.762;44.822;2022-12-20T08:45:41;7.35;;;2.80;;
75997;SDS011;64685;48.762;44.822;2022-12-20T08:48:07;8.30;;;2.88;;
75997;SDS011;64685;48.762;44.822;2022-12-20T08:50:33;7.28;;;3.63;;
75997;SDS011;64685;48.762;44.822;2022-12-20T08:52:58;8.65;;;2.83;;
75997;SDS011;64685;48.762;44.822;2022-12-20T08:55:24;7.00;;;3.25;;
75997;SDS011;64685;48.762;44.822;2022-12-20T08:57:50;9.90;;;3.65;;
75997;SDS011;64685;48.762;44.822;2022-12-20T09:00:16;8.43;;;3.70;;
75997;SDS011;64685;48.762;44.822;2022-12-20T09:02:41;7.43;;;3.22;;
75997;SDS011;64685;48.762;44.822;2022-12-20T09:05:07;9.57;;;4.13;;
75997;SDS011;64685;48.762;44.822;2022-12-20T09:07:33;7.88;;;3.60;;
75997;SDS011;64685;48.762;44.822;2022-12-20T09:09:59;7.65;;;2.92;;
75997;SDS011;64685;48.762;44.822;2022-12-20T09:12:25;8.32;;;3.15;;
75997;SDS011;64685;48.762;44.822;2022-12-20T09:14:50;9.68;;;3.50;;
75997;SDS011;64685;48.762;44.822;2022-12-20T09:17:16;9.75;;;2.92;;
75997;SDS011;64685;48.762;44.822;2022-12-20T09:19:42;7.03;;;3.58;;
75997;SDS011;64685;48.762;44.822;2022-12-20T09:22:08;9.23;;;3.72;;
75997;SDS011;64685;48.762;44.822;2022-12-20T09:24:33;8.95;;;3.70;;
75997;SDS011;64685;48.762;44.822;2022-12-20T09:26:59;10.45;;;3.20;;
75997;SDS011;64685;48.762;44.822;2022-12-20T09:29:25;11.45;;;3.63;;
75997;SDS011;64685;48.762;44.822;2022-12-20T09:31:50;9.35;;;3.42;;
75997;SDS011;64685;48.762;44.822;2022-12-20T09:34:16;6.43;;;2.83;;
75997;SDS011;64685;48.762;44.822;2022-12-20T09:36:42;9.40;;;3.13;;
75997;SDS011;64685;48.762;44.822;2022-12-20T09:39:08;10.05;;;2.95;;
75997;SDS011;64685;48.762;44.822;2022-12-20T09:41:39;8.40;;;3.75;;
75997;SDS011;64685;48.762;44.822;2022-12-20T09:46:37;8.50;;;3.33;;
75997;SDS011;64685;48.762;44.822;2022-12-20T09:49:03;8.90;;;3.58;;
75997;SDS011;64685;48.762;44.822;2022-12-20T09:54:05;7.78;;;3.50;;
75997;SDS011;64685;48.762;44.822;2022-12-20T09:56:35;8.13;;;3.60;;
75997;SDS011;64685;48.762;44.822;2022-12-20T09:59:17;9.88;;;3.97;;
75997;SDS011;64685;48.762;44.822;2022-12-20T10:01:44;10.55;;;4.03;;
75997;SDS011;64685;48.762;44.822;2022-12-20T10:04:20;9.05;;;3.50;;
75997;SDS011;64685;48.762;44.822;2022-12-20T10:09:22;9.07;;;3.50;;
75997;SDS011;64685;48.762;44.822;2022-12-20T10:16:59;11.05;;;3.78;;
75997;SDS011;64685;48.762;44.822;2022-12-20T10:23:14;8.95;;;3.42;;
75997;SDS011;64685;48.762;44.822;2022-12-20T10:27:31;9.70;;;3.25;;
75997;SDS011;64685;48.762;44.822;2022-12-20T10:30:04;8.20;;;3.85;;
75997;SDS011;64685;48.762;44.822;2022-12-20T10:32:35;9.27;;;3.03;;
75997;SDS011;64685;48.762;44.822;2022-12-20T10:37:36;8.43;;;2.88;;
75997;SDS011;64685;48.762;44.822;2022-12-20T10:40:02;7.85;;;3.47;;
75997;SDS011;64685;48.762;44.822;2022-12-20T10:42:39;10.38;;;3.10;;
75997;SDS011;64685;48.762;44.822;2022-12-20T10:47:42;8.45;;;3.33;;
75997;SDS011;64685;48.762;44.822;2022-12-20T10:52:37;10.48;;;3.50;;
75997;SDS011;64685;48.762;44.822;2022-12-20T10:55:06;6.70;;;2.88;;
75997;SDS011;64685;48.762;44.822;2022-12-20T10:57:49;9.57;;;3.03;;
75997;SDS011;64685;48.762;44.822;2022-12-20T11:00:26;12.68;;;2.75;;
75997;SDS011;64685;48.762;44.822;2022-12-20T11:03:12;10.27;;;3.08;;
75997;SDS011;64685;48.762;44.822;2022-12-20T11:05:40;8.10;;;3.42;;
75997;SDS011;64685;48.762;44.822;2022-12-20T11:08:16;9.75;;;3.65;;
75997;SDS011;64685;48.762;44.822;2022-12-20T11:10:43;7.93;;;3.10;;
75997;SDS011;64685;48.762;44.822;2022-12-20T11:13:27;9.23;;;3.40;;
75997;SDS011;64685;48.762;44.822;2022-12-20T11:15:54;10.40;;;3.75;;
75997;SDS011;64685;48.762;44.822;2022-12-20T11:18:25;8.65;;;3.78;;
75997;SDS011;64685;48.762;44.822;2022-12-20T11:36:51;9.70;;;3.72;;
75997;SDS011;64685;48.762;44.822;2022-12-20T11:38:58;10.48;;;3.55;;
75997;SDS011;64685;48.762;44.822;2022-12-20T11:41:31;8.77;;;3.38;;
75997;SDS011;64685;48.762;44.822;2022-12-20T11:46:28;7.25;;;3.40;;
75997;SDS011;64685;48.762;44.822;2022-12-20T11:49:02;11.05;;;3.58;;
75997;SDS011;64685;48.762;44.822;2022-12-20T11:51:46;8.82;;;3.90;;
75997;SDS011;64685;48.762;44.822;2022-12-20T11:57:14;10.68;;;3.67;;
75997;SDS011;64685;48.762;44.822;2022-12-20T11:59:51;13.05;;;3.95;;
75997;SDS011;64685;48.762;44.822;2022-12-20T12:04:48;9.52;;;3.95;;
75997;SDS011;64685;48.762;44.822;2022-12-20T12:07:18;8.35;;;3.50;;
75997;SDS011;64685;48.762;44.822;2022-12-20T12:12:41;8.85;;;3.13;;
75997;SDS011;64685;48.762;44.822;2022-12-20T12:23:13;10.57;;;3.65;;
75997;SDS011;64685;48.762;44.822;2022-12-20T12:25:40;9.18;;;3.80;;
75997;SDS011;64685;48.762;44.822;2022-12-20T12:28:08;8.85;;;3.55;;
75997;SDS011;64685;48.762;44.822;2022-12-20T12:30:38;11.65;;;4.25;;
75997;SDS011;64685;48.762;44.822;2022-12-20T12:33:13;9.50;;;4.15;;
75997;SDS011;64685;48.762;44.822;2022-12-20T12:45:57;8.65;;;3.75;;
75997;SDS011;64685;48.762;44.822;2022-12-20T12:50:55;10.43;;;3.92;;
75997;SDS011;64685;48.762;44.822;2022-12-20T13:04:09;8.75;;;4.13;;
75997;SDS011;64685;48.762;44.822;2022-12-20T13:11:48;13.45;;;5.00;;
75997;SDS011;64685;48.762;44.822;2022-12-20T13:16:43;12.30;;;4.47;;
75997;SDS011;64685;48.762;44.822;2022-12-20T13:19:15;9.27;;;4.03;;
75997;SDS011;64685;48.762;44.822;2022-12-20T13:21:45;11.27;;;4.70;;
75997;SDS011;64685;48.762;44.822;2022-12-20T13:26:57;9.30;;;4.38;;
75997;SDS011;64685;48.762;44.822;2022-12-20T13:29:25;10.45;;;4.60;;
75997;SDS011;64685;48.762;44.822;2022-12-20T13:36:42;15.07;;;5.53;;
75997;SDS011;64685;48.762;44.822;2022-12-20T13:41:46;13.43;;;5.70;;
75997;SDS011;64685;48.762;44.822;2022-12-20T13:49:16;12.73;;;4.88;;
75997;SDS011;64685;48.762;44.822;2022-12-20T13:51:42;10.27;;;5.00;;
75997;SDS011;64685;48.762;44.822;2022-12-20T13:54:14;11.77;;;5.05;;
75997;SDS011;64685;48.762;44.822;2022-12-20T14:01:49;13.05;;;5.38;;
75997;SDS011;64685;48.762;44.822;2022-12-20T14:04:16;10.02;;;4.40;;
75997;SDS011;64685;48.762;44.822;2022-12-20T14:09:25;8.80;;;4.00;;
75997;SDS011;64685;48.762;44.822;2022-12-20T14:11:51;13.73;;;5.75;;
75997;SDS011;64685;48.762;44.822;2022-12-20T14:14:17;13.02;;;5.80;;
75997;SDS011;64685;48.762;44.822;2022-12-20T14:16:42;14.20;;;5.88;;
75997;SDS011;64685;48.762;44.822;2022-12-20T14:19:12;12.48;;;5.13;;
75997;SDS011;64685;48.762;44.822;2022-12-20T14:21:39;12.63;;;5.13;;
75997;SDS011;64685;48.762;44.822;2022-12-20T14:24:07;13.70;;;5.45;;
75997;SDS011;64685;48.762;44.822;2022-12-20T14:26:41;16.70;;;6.03;;
75997;SDS011;64685;48.762;44.822;2022-12-20T14:29:14;13.43;;;4.68;;
75997;SDS011;64685;48.762;44.822;2022-12-20T14:31:43;14.13;;;4.95;;
75997;SDS011;64685;48.762;44.822;2022-12-20T14:36:39;14.77;;;5.78;;
75997;SDS011;64685;48.762;44.822;2022-12-20T14:42:33;18.33;;;5.25;;
75997;SDS011;64685;48.762;44.822;2022-12-20T14:44:39;14.95;;;5.05;;
75997;SDS011;64685;48.762;44.822;2022-12-20T14:47:18;11.73;;;4.78;;
75997;SDS011;64685;48.762;44.822;2022-12-20T14:49:49;12.80;;;5.68;;
75997;SDS011;64685;48.762;44.822;2022-12-20T14:52:19;8.88;;;3.70;;
75997;SDS011;64685;48.762;44.822;2022-12-20T14:57:25;13.70;;;6.07;;
75997;SDS011;64685;48.762;44.822;2022-12-20T14:59:57;15.30;;;5.63;;
75997;SDS011;64685;48.762;44.822;2022-12-20T15:02:31;13.23;;;4.75;;
75997;SDS011;64685;48.762;44.822;2022-12-20T15:04:58;13.25;;;5.68;;
75997;SDS011;64685;48.762;44.822;2022-12-20T15:07:29;16.48;;;6.43;;
75997;SDS011;64685;48.762;44.822;2022-12-20T15:09:55;15.38;;;6.47;;
75997;SDS011;64685;48.762;44.822;2022-12-20T15:12:21;8.20;;;3.42;;
75997;SDS011;64685;48.762;44.822;2022-12-20T15:14:47;15.70;;;6.13;;
75997;SDS011;64685;48.762;44.822;2022-12-20T15:17:13;17.52;;;5.40;;
75997;SDS011;64685;48.762;44.822;2022-12-20T15:19:40;15.02;;;6.45;;
75997;SDS011;64685;48.762;44.822;2022-12-20T15:22:11;16.45;;;5.68;;
75997;SDS011;64685;48.762;44.822;2022-12-20T15:24:38;13.60;;;5.50;;
75997;SDS011;64685;48.762;44.822;2022-12-20T15:27:05;17.67;;;5.95;;
75997;SDS011;64685;48.762;44.822;2022-12-20T15:29:30;11.35;;;5.43;;
75997;SDS011;64685;48.762;44.822;2022-12-20T15:32:03;12.38;;;6.07;;
75997;SDS011;64685;48.762;44.822;2022-12-20T15:34:33;17.08;;;6.65;;
75997;SDS011;64685;48.762;44.822;2022-12-20T15:37:00;14.95;;;7.18;;
75997;SDS011;64685;48.762;44.822;2022-12-20T15:39:27;10.60;;;4.25;;
75997;SDS011;64685;48.762;44.822;2022-12-20T15:41:53;7.45;;;3.53;;
75997;SDS011;64685;48.762;44.822;2022-12-20T15:44:23;16.52;;;6.47;;
75997;SDS011;64685;48.762;44.822;2022-12-20T15:46:49;16.77;;;6.70;;
75997;SDS011;64685;48.762;44.822;2022-12-20T15:49:16;13.60;;;6.07;;
75997;SDS011;64685;48.762;44.822;2022-12-20T15:51:43;15.88;;;6.88;;
75997;SDS011;64685;48.762;44.822;2022-12-20T15:54:51;15.25;;;5.70;;
75997;SDS011;64685;48.762;44.822;2022-12-20T15:57:00;18.13;;;6.72;;
75997;SDS011;64685;48.762;44.822;2022-12-20T15:59:29;11.85;;;5.03;;
75997;SDS011;64685;48.762;44.822;2022-12-20T16:01:55;13.00;;;5.72;;
75997;SDS011;64685;48.762;44.822;2022-12-20T16:04:21;19.13;;;7.07;;
75997;SDS011;64685;48.762;44.822;2022-12-20T16:06:48;11.50;;;5.90;;
75997;SDS011;64685;48.762;44.822;2022-12-20T16:09:14;13.13;;;5.57;;
75997;SDS011;64685;48.762;44.822;2022-12-20T16:11:40;17.77;;;6.25;;
75997;SDS011;64685;48.762;44.822;2022-12-20T16:14:08;16.55;;;6.82;;
75997;SDS011;64685;48.762;44.822;2022-12-20T16:16:35;17.02;;;6.60;;
75997;SDS011;64685;48.762;44.822;2022-12-20T16:19:01;19.15;;;6.82;;
75997;SDS011;64685;48.762;44.822;2022-12-20T16:23:53;16.33;;;6.80;;
75997;SDS011;64685;48.762;44.822;2022-12-20T16:26:20;18.83;;;6.53;;
75997;SDS011;64685;48.762;44.822;2022-12-20T16:28:47;16.10;;;7.78;;
75997;SDS011;64685;48.762;44.822;2022-12-20T16:31:23;15.70;;;6.32;;
75997;SDS011;64685;48.762;44.822;2022-12-20T16:33:49;15.70;;;6.82;;
75997;SDS011;64685;48.762;44.822;2022-12-20T16:36:15;20.30;;;7.50;;
75997;SDS011;64685;48.762;44.822;2022-12-20T16:38:41;16.33;;;5.80;;
75997;SDS011;64685;48.762;44.822;2022-12-20T16:41:11;12.25;;;4.90;;
75997;SDS011;64685;48.762;44.822;2022-12-20T16:43:38;18.27;;;7.80;;
75997;SDS011;64685;48.762;44.822;2022-12-20T16:46:03;15.93;;;6.07;;
75997;SDS011;64685;48.762;44.822;2022-12-20T16:48:30;17.58;;;6.60;;
75997;SDS011;64685;48.762;44.822;2022-12-20T16:50:56;17.45;;;6.97;;
75997;SDS011;64685;48.762;44.822;2022-12-20T16:53:21;18.58;;;6.82;;
75997;SDS011;64685;48.762;44.822;2022-12-20T16:55:47;15.10;;;6.47;;
75997;SDS011;64685;48.762;44.822;2022-12-20T16:58:13;17.00;;;6.88;;
75997;SDS011;64685;48.762;44.822;2022-12-20T17:00:39;18.55;;;7.03;;
75997;SDS011;64685;48.762;44.822;2022-12-20T17:03:04;16.42;;;7.25;;
75997;SDS011;64685;48.762;44.822;2022-12-20T17:05:32;20.25;;;7.45;;
75997;SDS011;64685;48.762;44.822;2022-12-20T17:07:58;18.88;;;7.93;;
75997;SDS011;64685;48.762;44.822;2022-12-20T17:10:24;20.40;;;6.60;;
75997;SDS011;64685;48.762;44.822;2022-12-20T17:12:51;17.45;;;7.45;;
75997;SDS011;64685;48.762;44.822;2022-12-20T17:15:27;14.88;;;5.38;;
75997;SDS011;64685;48.762;44.822;2022-12-20T17:17:53;20.05;;;7.95;;
75997;SDS011;64685;48.762;44.822;2022-12-20T17:20:19;13.27;;;5.45;;
75997;SDS011;64685;48.762;44.822;2022-12-20T17:22:49;15.10;;;6.32;;
75997;SDS011;64685;48.762;44.822;2022-12-20T17:25:19;14.93;;;4.82;;
75997;SDS011;64685;48.762;44.822;2022-12-20T17:27:45;15.93;;;5.35;;
75997;SDS011;64685;48.762;44.822;2022-12-20T17:30:12;21.50;;;6.75;;
75997;SDS011;64685;48.762;44.822;2022-12-20T17:32:38;17.75;;;5.72;;
75997;SDS011;64685;48.762;44.822;2022-12-20T17:35:05;19.63;;;7.85;;
75997;SDS011;64685;48.762;44.822;2022-12-20T17:37:32;18.38;;;6.93;;
75997;SDS011;64685;48.762;44.822;2022-12-20T17:39:59;19.45;;;7.43;;
75997;SDS011;64685;48.762;44.822;2022-12-20T17:42:25;19.73;;;6.88;;
75997;SDS011;64685;48.762;44.822;2022-12-20T17:44:51;20.45;;;7.82;;
75997;SDS011;64685;48.762;44.822;2022-12-20T17:47:17;13.68;;;5.55;;
75997;SDS011;64685;48.762;44.822;2022-12-20T17:49:43;19.08;;;6.63;;
75997;SDS011;64685;48.762;44.822;2022-12-20T17:52:11;16.88;;;7.50;;
75997;SDS011;64685;48.762;44.822;2022-12-20T17:54:37;21.42;;;7.32;;
75997;SDS011;64685;48.762;44.822;2022-12-20T17:57:03;21.05;;;7.25;;
75997;SDS011;64685;48.762;44.822;2022-12-20T17:59:29;12.73;;;6.25;;
75997;SDS011;64685;48.762;44.822;2022-12-20T18:01:55;13.32;;;7.07;;
75997;SDS011;64685;48.762;44.822;2022-12-20T18:04:20;19.08;;;7.28;;
75997;SDS011;64685;48.762;44.822;2022-12-20T18:06:46;15.52;;;5.20;;
75997;SDS011;64685;48.762;44.822;2022-12-20T18:09:13;17.17;;;7.38;;
75997;SDS011;64685;48.762;44.822;2022-12-20T18:11:40;20.08;;;6.40;;
75997;SDS011;64685;48.762;44.822;2022-12-20T18:14:05;20.75;;;7.22;;
75997;SDS011;64685;48.762;44.822;2022-12-20T18:16:31;20.60;;;7.93;;
75997;SDS011;64685;48.762;44.822;2022-12-20T18:18:59;20.98;;;8.40;;
75997;SDS011;64685;48.762;44.822;2022-12-20T18:21:25;18.13;;;7.10;;
75997;SDS011;64685;48.762;44.822;2022-12-20T18:23:51;14.80;;;6.70;;
75997;SDS011;64685;48.762;44.822;2022-12-20T18:28:47;12.98;;;5.68;;
75997;SDS011;64685;48.762;44.822;2022-12-20T18:31:17;13.27;;;5.47;;
75997;SDS011;64685;48.762;44.822;2022-12-20T18:33:43;15.63;;;6.32;;
75997;SDS011;64685;48.762;44.822;2022-12-20T18:36:13;18.70;;;6.68;;
75997;SDS011;64685;48.762;44.822;2022-12-20T18:38:40;26.50;;;6.82;;
75997;SDS011;64685;48.762;44.822;2022-12-20T18:41:06;18.20;;;6.53;;
75997;SDS011;64685;48.762;44.822;2022-12-20T18:43:32;15.05;;;5.85;;
75997;SDS011;64685;48.762;44.822;2022-12-20T18:46:02;17.08;;;5.32;;
75997;SDS011;64685;48.762;44.822;2022-12-20T18:48:28;14.98;;;5.53;;
75997;SDS011;64685;48.762;44.822;2022-12-20T18:50:54;14.45;;;6.57;;
75997;SDS011;64685;48.762;44.822;2022-12-20T18:53:20;15.55;;;4.82;;
75997;SDS011;64685;48.762;44.822;2022-12-20T18:55:46;14.77;;;5.72;;
75997;SDS011;64685;48.762;44.822;2022-12-20T18:58:12;16.02;;;6.05;;
75997;SDS011;64685;48.762;44.822;2022-12-20T19:00:38;10.50;;;4.65;;
75997;SDS011;64685;48.762;44.822;2022-12-20T19:03:04;16.63;;;6.10;;
75997;SDS011;64685;48.762;44.822;2022-12-20T19:05:33;19.08;;;7.65;;
75997;SDS011;64685;48.762;44.822;2022-12-20T19:07:58;18.52;;;7.82;;
75997;SDS011;64685;48.762;44.822;2022-12-20T19:10:24;15.82;;;6.10;;
75997;SDS011;64685;48.762;44.822;2022-12-20T19:12:50;21.77;;;8.07;;
75997;SDS011;64685;48.762;44.822;2022-12-20T19:15:16;15.80;;;6.45;;
75997;SDS011;64685;48.762;44.822;2022-12-20T19:17:41;15.20;;;6.38;;
75997;SDS011;64685;48.762;44.822;2022-12-20T19:20:07;19.00;;;7.32;;
75997;SDS011;64685;48.762;44.822;2022-12-20T19:22:33;20.48;;;7.40;;
75997;SDS011;64685;48.762;44.822;2022-12-20T19:24:59;16.88;;;7.03;;
75997;SDS011;64685;48.762;44.822;2022-12-20T19:27:25;13.02;;;4.63;;
75997;SDS011;64685;48.762;44.822;2022-12-20T19:29:51;13.38;;;4.63;;
75997;SDS011;64685;48.762;44.822;2022-12-20T19:32:18;15.38;;;7.03;;
75997;SDS011;64685;48.762;44.822;2022-12-20T19:34:44;18.50;;;7.75;;
75997;SDS011;64685;48.762;44.822;2022-12-20T19:37:10;19.95;;;7.50;;
75997;SDS011;64685;48.762;44.822;2022-12-20T19:39:37;15.63;;;3.42;;
75997;SDS011;64685;48.762;44.822;2022-12-20T19:42:03;17.15;;;5.53;;
75997;SDS011;64685;48.762;44.822;2022-12-20T19:44:29;15.40;;;5.18;;
75997;SDS011;64685;48.762;44.822;2022-12-20T19:46:54;18.83;;;7.72;;
75997;SDS011;64685;48.762;44.822;2022-12-20T19:49:20;17.67;;;7.18;;
75997;SDS011;64685;48.762;44.822;2022-12-20T19:51:47;19.25;;;7.47;;
75997;SDS011;64685;48.762;44.822;2022-12-20T19:54:12;25.55;;;6.65;;
75997;SDS011;64685;48.762;44.822;2022-12-20T19:56:38;16.98;;;7.13;;
75997;SDS011;64685;48.762;44.822;2022-12-20T19:59:04;14.98;;;5.47;;
75997;SDS011;64685;48.762;44.822;2022-12-20T20:01:30;20.40;;;8.10;;
75997;SDS011;64685;48.762;44.822;2022-12-20T20:03:57;17.05;;;6.88;;
75997;SDS011;64685;48.762;44.822;2022-12-20T20:08:48;19.88;;;6.30;;
75997;SDS011;64685;48.762;44.822;2022-12-20T20:11:15;14.88;;;5.95;;
75997;SDS011;64685;48.762;44.822;2022-12-20T20:13:41;14.02;;;5.75;;
75997;SDS011;64685;48.762;44.822;2022-12-20T20:16:08;20.13;;;6.47;;
75997;SDS011;64685;48.762;44.822;2022-12-20T20:18:34;18.77;;;5.43;;
75997;SDS011;64685;48.762;44.822;2022-12-20T20:21:11;13.77;;;4.45;;
75997;SDS011;64685;48.762;44.822;2022-12-20T20:23:38;18.75;;;7.50;;
75997;SDS011;64685;48.762;44.822;2022-12-20T20:26:05;17.73;;;6.63;;
75997;SDS011;64685;48.762;44.822;2022-12-20T20:28:31;19.30;;;6.82;;
75997;SDS011;64685;48.762;44.822;2022-12-20T20:30:57;15.77;;;6.55;;
75997;SDS011;64685;48.762;44.822;2022-12-20T20:33:23;16.17;;;6.25;;
75997;SDS011;64685;48.762;44.822;2022-12-20T20:35:53;19.33;;;6.75;;
75997;SDS011;64685;48.762;44.822;2022-12-20T20:38:20;14.48;;;5.45;;
75997;SDS011;64685;48.762;44.822;2022-12-20T20:40:46;18.75;;;7.22;;
75997;SDS011;64685;48.762;44.822;2022-12-20T20:43:11;13.10;;;5.53;;
75997;SDS011;64685;48.762;44.822;2022-12-20T20:45:37;17.05;;;7.03;;
75997;SDS011;64685;48.762;44.822;2022-12-20T20:48:03;18.40;;;6.82;;
75997;SDS011;64685;48.762;44.822;2022-12-20T20:50:29;18.52;;;6.65;;
75997;SDS011;64685;48.762;44.822;2022-12-20T20:52:55;16.45;;;7.22;;
75997;SDS011;64685;48.762;44.822;2022-12-20T20:55:21;18.90;;;6.82;;
75997;SDS011;64685;48.762;44.822;2022-12-20T20:57:47;17.02;;;5.57;;
75997;SDS011;64685;48.762;44.822;2022-12-20T21:02:39;16.75;;;6.28;;
75997;SDS011;64685;48.762;44.822;2022-12-20T21:05:05;17.38;;;6.00;;
75997;SDS011;64685;48.762;44.822;2022-12-20T21:07:31;18.45;;;6.05;;
75997;SDS011;64685;48.762;44.822;2022-12-20T21:09:57;18.55;;;6.82;;
75997;SDS011;64685;48.762;44.822;2022-12-20T21:12:23;20.08;;;6.40;;
75997;SDS011;64685;48.762;44.822;2022-12-20T21:14:49;18.40;;;7.13;;
75997;SDS011;64685;48.762;44.822;2022-12-20T21:17:14;19.27;;;6.70;;
75997;SDS011;64685;48.762;44.822;2022-12-20T21:19:40;27.52;;;5.90;;
75997;SDS011;64685;48.762;44.822;2022-12-20T21:22:06;20.38;;;6.72;;
75997;SDS011;64685;48.762;44.822;2022-12-20T21:24:31;19.02;;;7.20;;
75997;SDS011;64685;48.762;44.822;2022-12-20T21:26:57;19.88;;;6.93;;
75997;SDS011;64685;48.762;44.822;2022-12-20T21:29:23;15.60;;;6.13;;
75997;SDS011;64685;48.762;44.822;2022-12-20T21:31:49;13.57;;;5.35;;
75997;SDS011;64685;48.762;44.822;2022-12-20T21:34:14;16.75;;;7.18;;
75997;SDS011;64685;48.762;44.822;2022-12-20T21:36:40;17.55;;;6.50;;
75997;SDS011;64685;48.762;44.822;2022-12-20T21:39:09;15.57;;;6.50;;
75997;SDS011;64685;48.762;44.822;2022-12-20T21:41:35;15.13;;;6.53;;
75997;SDS011;64685;48.762;44.822;2022-12-20T21:44:01;17.15;;;6.78;;
75997;SDS011;64685;48.762;44.822;2022-12-20T21:46:28;18.27;;;5.57;;
75997;SDS011;64685;48.762;44.822;2022-12-20T21:48:54;15.88;;;6.00;;
75997;SDS011;64685;48.762;44.822;2022-12-20T21:51:21;17.40;;;6.50;;
75997;SDS011;64685;48.762;44.822;2022-12-20T21:53:48;16.60;;;5.85;;
75997;SDS011;64685;48.762;44.822;2022-12-20T21:56:14;17.55;;;7.25;;
75997;SDS011;64685;48.762;44.822;2022-12-20T21:58:40;14.98;;;6.00;;
75997;SDS011;64685;48.762;44.822;2022-12-20T22:01:06;13.30;;;5.90;;
75997;SDS011;64685;48.762;44.822;2022-12-20T22:03:32;17.42;;;7.18;;
75997;SDS011;64685;48.762;44.822;2022-12-20T22:05:58;18.17;;;7.85;;
75997;SDS011;64685;48.762;44.822;2022-12-20T22:08:25;16.23;;;6.90;;
75997;SDS011;64685;48.762;44.822;2022-12-20T22:10:57;17.35;;;6.75;;
75997;SDS011;64685;48.762;44.822;2022-12-20T22:13:23;16.35;;;6.57;;
75997;SDS011;64685;48.762;44.822;2022-12-20T22:15:49;13.10;;;5.78;;
75997;SDS011;64685;48.762;44.822;2022-12-20T22:18:15;12.90;;;5.22;;
75997;SDS011;64685;48.762;44.822;2022-12-20T22:20:42;15.75;;;6.43;;
75997;SDS011;64685;48.762;44.822;2022-12-20T22:23:08;15.80;;;5.75;;
75997;SDS011;64685;48.762;44.822;2022-12-20T22:25:34;17.35;;;5.85;;
75997;SDS011;64685;48.762;44.822;2022-12-20T22:28:00;15.18;;;6.50;;
75997;SDS011;64685;48.762;44.822;2022-12-20T22:30:26;14.40;;;5.47;;
75997;SDS011;64685;48.762;44.822;2022-12-20T22:32:52;17.10;;;6.88;;
75997;SDS011;64685;48.762;44.822;2022-12-20T22:35:18;14.63;;;6.20;;
75997;SDS011;64685;48.762;44.822;2022-12-20T22:37:44;12.32;;;4.72;;
75997;SDS011;64685;48.762;44.822;2022-12-20T22:40:10;14.05;;;4.88;;
75997;SDS011;64685;48.762;44.822;2022-12-20T22:42:39;17.55;;;6.18;;
75997;SDS011;64685;48.762;44.822;2022-12-20T22:45:05;14.00;;;6.05;;
75997;SDS011;64685;48.762;44.822;2022-12-20T22:49:57;14.73;;;6.05;;
75997;SDS011;64685;48.762;44.822;2022-12-20T22:52:23;19.80;;;7.10;;
75997;SDS011;64685;48.762;44.822;2022-12-20T22:54:49;15.70;;;7.25;;
75997;SDS011;64685;48.762;44.822;2022-12-20T22:57:15;14.40;;;5.72;;
75997;SDS011;64685;48.762;44.822;2022-12-20T22:59:40;15.88;;;6.55;;
75997;SDS011;64685;48.762;44.822;2022-12-20T23:02:06;17.15;;;6.88;;
75997;SDS011;64685;48.762;44.822;2022-12-20T23:04:32;15.15;;;6.13;;
75997;SDS011;64685;48.762;44.822;2022-12-20T23:06:58;13.43;;;6.22;;